Time;durP1;ratioP1;P1;durP2;ratioP2;P2;SDS_P1;SDS_P2;PMS_P1;PMS_P2;Temp;Humidity;BMP_temperature;BMP_pressure;BME280_temperature;BME280_humidity;BME280_pressure;Samples;Min_cycle;Max_cycle;Signal;HPM_P1;HPM_P2
2024/03/25 00:00:36;;;;;;;24.23;23.33;;;20.80;55.70;;;;;;5083416;28;20434;-70
2024/03/25 00:03:02;;;;;;;24.37;23.20;;;20.80;55.60;;;;;;5083197;28;20208;-71
2024/03/25 00:05:32;;;;;;;23.70;22.60;;;20.80;55.70;;;;;;5080005;28;20850;-71
2024/03/25 00:07:58;;;;;;;24.20;23.20;;;20.80;55.80;;;;;;5079613;28;20467;-72
2024/03/25 00:10:25;;;;;;;23.37;22.47;;;20.80;55.80;;;;;;5083745;28;20798;-71
2024/03/25 00:12:54;;;;;;;24.47;22.37;;;20.80;55.80;;;;;;5083407;28;20511;-70
2024/03/25 00:15:21;;;;;;;24.53;23.53;;;20.80;55.80;;;;;;5080132;28;20551;-71
2024/03/25 00:17:46;;;;;;;24.30;23.27;;;20.80;56.00;;;;;;5079769;28;20446;-71
2024/03/25 00:20:14;;;;;;;23.20;22.20;;;20.80;56.10;;;;;;5081793;28;20443;-70
2024/03/25 00:22:42;;;;;;;23.70;22.70;;;20.80;56.00;;;;;;5083553;28;20579;-71
2024/03/25 00:25:09;;;;;;;29.80;28.70;;;20.70;56.00;;;;;;5081760;28;20560;-71
2024/03/25 00:27:35;;;;;;;30.60;29.50;;;20.80;56.10;;;;;;5079480;28;20443;-71
2024/03/25 00:30:02;;;;;;;30.07;29.00;;;20.70;56.00;;;;;;5079816;28;20469;-71
2024/03/25 00:32:28;;;;;;;23.40;22.50;;;20.70;56.10;;;;;;5083306;28;20980;-71
2024/03/25 00:34:55;;;;;;;23.47;22.47;;;20.70;56.10;;;;;;5084063;28;20526;-70
2024/03/25 00:37:21;;;;;;;23.00;21.80;;;20.70;56.20;;;;;;5085709;28;20318;-69
2024/03/25 00:39:49;;;;;;;22.90;22.00;;;20.70;56.10;;;;;;5085424;28;20469;-70
2024/03/25 00:42:15;;;;;;;24.03;23.13;;;20.70;56.10;;;;;;5087492;28;20446;-70
2024/03/25 00:44:42;;;;;;;23.20;22.20;;;20.70;56.10;;;;;;5089328;28;20852;-69
2024/03/25 00:47:08;;;;;;;23.10;22.20;;;20.70;56.10;;;;;;5087726;28;20227;-70
2024/03/25 00:49:35;;;;;;;23.70;22.67;;;20.70;56.20;;;;;;5083515;28;20955;-70
2024/03/25 00:52:02;;;;;;;23.37;22.37;;;20.70;56.20;;;;;;5079925;28;20451;-70
2024/03/25 00:54:29;;;;;;;24.20;23.10;;;20.70;56.20;;;;;;5083331;28;20448;-70
2024/03/25 00:56:56;;;;;;;25.20;23.93;;;20.70;56.30;;;;;;5082772;28;20809;-70
2024/03/25 00:59:23;;;;;;;24.03;23.03;;;20.70;56.40;;;;;;5079693;28;20473;-70
2024/03/25 01:01:49;;;;;;;23.83;22.73;;;20.70;56.40;;;;;;5079298;28;20467;-70
2024/03/25 01:04:16;;;;;;;23.57;22.67;;;20.60;56.40;;;;;;5081788;28;20532;-70
2024/03/25 01:06:43;;;;;;;23.23;22.33;;;20.60;56.30;;;;;;5086574;28;20489;-70
2024/03/25 01:09:10;;;;;;;23.80;22.60;;;20.60;56.40;;;;;;5085467;28;20457;-69
2024/03/25 01:11:36;;;;;;;23.00;22.10;;;20.60;56.40;;;;;;5083432;28;20780;-70
2024/03/25 01:14:04;;;;;;;24.60;23.60;;;20.60;56.40;;;;;;5082977;28;20489;-70
2024/03/25 01:16:29;;;;;;;23.43;22.53;;;20.60;56.50;;;;;;5086179;28;20580;-69
2024/03/25 01:18:58;;;;;;;23.50;22.50;;;20.60;56.40;;;;;;5086370;28;20822;-70
2024/03/25 01:21:25;;;;;;;23.90;22.80;;;20.60;56.40;;;;;;5083499;28;20280;-70
2024/03/25 01:23:52;;;;;;;23.90;22.90;;;20.60;56.50;;;;;;5082914;28;20949;-70
2024/03/25 01:26:17;;;;;;;23.10;22.20;;;20.60;56.60;;;;;;5085086;28;20462;-70
2024/03/25 01:28:44;;;;;;;23.00;22.10;;;20.60;56.60;;;;;;5085938;28;20450;-70
2024/03/25 01:31:13;;;;;;;23.37;22.47;;;20.60;56.50;;;;;;5085085;28;20204;-70
2024/03/25 01:33:40;;;;;;;23.90;22.80;;;20.60;56.50;;;;;;5082877;28;20930;-70
2024/03/25 01:36:07;;;;;;;24.10;23.10;;;20.60;56.70;;;;;;5083191;28;20513;-70
2024/03/25 01:38:33;;;;;;;24.37;23.30;;;20.60;56.70;;;;;;5085691;28;20797;-70
2024/03/25 01:41:07;;;;;;;24.17;23.20;;;20.60;56.70;;;;;;5085939;28;20446;-70
2024/03/25 01:43:34;;;;;;;24.30;23.20;;;20.60;56.70;;;;;;5075191;28;20509;-70
2024/03/25 01:46:00;;;;;;;24.13;23.00;;;20.60;56.80;;;;;;5082293;28;20470;-70
2024/03/25 01:48:29;;;;;;;23.90;22.90;;;20.50;56.60;;;;;;5085521;28;20446;-70
2024/03/25 01:50:56;;;;;;;23.50;22.60;;;20.60;56.70;;;;;;5086175;28;20443;-70
2024/03/25 01:53:24;;;;;;;23.40;22.40;;;20.50;56.60;;;;;;5083024;28;20439;-70
2024/03/25 01:55:54;;;;;;;23.57;22.67;;;20.50;56.60;;;;;;5082089;28;21091;-70
2024/03/25 01:58:23;;;;;;;24.07;22.83;;;20.50;56.60;;;;;;5084382;28;20451;-70
2024/03/25 02:00:50;;;;;;;22.97;21.97;;;20.50;56.70;;;;;;5079031;28;20470;-70
2024/03/25 02:03:18;;;;;;;23.30;22.40;;;20.50;56.60;;;;;;5084156;28;20469;-70
2024/03/25 02:05:45;;;;;;;25.43;24.33;;;20.50;56.70;;;;;;5085458;28;20528;-70
2024/03/25 02:08:13;;;;;;;23.83;22.77;;;20.50;56.60;;;;;;5083798;28;20446;-70
2024/03/25 02:10:39;;;;;;;24.23;23.13;;;20.50;56.70;;;;;;5082212;28;20439;-70
2024/03/25 02:13:07;;;;;;;24.70;23.70;;;20.50;56.80;;;;;;5081811;28;20439;-70
2024/03/25 02:15:33;;;;;;;23.53;22.53;;;20.50;56.70;;;;;;5085406;28;20220;-70
2024/03/25 02:18:00;;;;;;;24.23;23.23;;;20.50;56.80;;;;;;5084532;28;20814;-70
2024/03/25 02:20:26;;;;;;;23.93;22.93;;;20.50;56.80;;;;;;5081937;28;20493;-69
2024/03/25 02:22:55;;;;;;;23.73;22.73;;;20.50;56.80;;;;;;5081431;28;20439;-70
2024/03/25 02:25:22;;;;;;;23.40;22.40;;;20.50;56.80;;;;;;5083958;28;20243;-70
2024/03/25 02:27:50;;;;;;;23.80;22.70;;;20.50;56.80;;;;;;5084982;28;20846;-70
2024/03/25 02:30:16;;;;;;;22.97;22.00;;;20.50;56.80;;;;;;5083129;28;20445;-70
2024/03/25 02:32:43;;;;;;;24.10;23.10;;;20.50;56.80;;;;;;5079566;28;20442;-69
2024/03/25 02:35:11;;;;;;;23.57;22.57;;;20.50;56.80;;;;;;5077143;28;20197;-70
2024/03/25 02:37:39;;;;;;;24.27;23.27;;;20.40;56.80;;;;;;5084808;28;20507;-70
2024/03/25 02:40:07;;;;;;;23.47;22.47;;;20.50;56.90;;;;;;5084500;28;20439;-70
2024/03/25 02:42:34;;;;;;;24.70;23.63;;;20.40;56.70;;;;;;5081285;28;20447;-70
2024/03/25 02:45:02;;;;;;;24.47;23.27;;;20.40;56.80;;;;;;5081117;28;20476;-70
2024/03/25 02:47:28;;;;;;;23.60;22.60;;;20.40;56.80;;;;;;5084088;28;20442;-70
2024/03/25 02:49:54;;;;;;;25.73;24.63;;;20.40;56.80;;;;;;5084694;28;20446;-70
2024/03/25 02:52:21;;;;;;;23.40;22.50;;;20.40;56.80;;;;;;5082477;28;20435;-70
2024/03/25 02:54:47;;;;;;;23.77;22.77;;;20.40;56.80;;;;;;5081222;28;20201;-70
2024/03/25 02:57:14;;;;;;;23.47;22.50;;;20.40;56.80;;;;;;5080692;28;20469;-70
2024/03/25 02:59:39;;;;;;;24.47;23.20;;;20.40;56.80;;;;;;5080945;28;20200;-70
2024/03/25 03:02:07;;;;;;;22.80;22.00;;;20.40;56.80;;;;;;5080893;28;20964;-70
2024/03/25 03:04:33;;;;;;;23.83;22.83;;;20.40;56.70;;;;;;5084415;28;20216;-70
2024/03/25 03:07:00;;;;;;;24.10;23.10;;;20.40;56.80;;;;;;5083979;28;20485;-70
2024/03/25 03:09:25;;;;;;;24.50;23.23;;;20.40;56.90;;;;;;5081118;28;20205;-69
2024/03/25 03:11:52;;;;;;;24.70;23.70;;;20.40;56.90;;;;;;5080781;28;20961;-70
2024/03/25 03:14:18;;;;;;;24.27;23.20;;;20.40;56.90;;;;;;5082414;28;20212;-70
2024/03/25 03:16:44;;;;;;;24.50;23.40;;;20.40;56.80;;;;;;5083700;28;20458;-70
2024/03/25 03:19:12;;;;;;;24.53;23.43;;;20.40;56.90;;;;;;5083254;28;20200;-70
2024/03/25 03:21:38;;;;;;;26.10;24.90;;;20.40;56.80;;;;;;5080437;28;20509;-70
2024/03/25 03:24:05;;;;;;;29.13;28.03;;;20.40;56.80;;;;;;5080462;28;20466;-70
2024/03/25 03:26:31;;;;;;;30.40;29.30;;;20.40;56.80;;;;;;5083336;28;20486;-70
2024/03/25 03:28:57;;;;;;;31.50;30.40;;;20.40;56.90;;;;;;5082998;28;20449;-70
2024/03/25 03:31:24;;;;;;;31.97;30.70;;;20.40;56.90;;;;;;5081167;28;20446;-70
2024/03/25 03:33:51;;;;;;;33.03;31.73;;;20.40;57.00;;;;;;5080414;28;20205;-70
2024/03/25 03:36:20;;;;;;;32.43;31.13;;;20.40;57.00;;;;;;5081503;28;20485;-70
2024/03/25 03:38:46;;;;;;;24.13;22.77;;;20.40;57.00;;;;;;5083380;28;20435;-70
2024/03/25 03:41:14;;;;;;;23.93;23.03;;;20.40;57.00;;;;;;5082917;28;20466;-70
2024/03/25 03:43:39;;;;;;;23.53;22.63;;;20.40;57.00;;;;;;5080106;28;20829;-70
2024/03/25 03:46:06;;;;;;;23.40;22.50;;;20.30;57.00;;;;;;5080013;28;20471;-70
2024/03/25 03:48:32;;;;;;;24.27;23.27;;;20.30;56.80;;;;;;5079731;28;20232;-71
2024/03/25 03:50:59;;;;;;;24.37;23.37;;;20.30;56.80;;;;;;5080193;28;20440;-71
2024/03/25 03:53:26;;;;;;;24.50;23.40;;;20.30;56.80;;;;;;5082374;28;20204;-71
2024/03/25 03:55:57;;;;;;;24.70;23.70;;;20.30;56.80;;;;;;5078567;28;20473;-71
2024/03/25 03:58:23;;;;;;;25.00;24.00;;;20.30;56.90;;;;;;5081696;28;20439;-71
2024/03/25 04:00:50;;;;;;;24.37;23.37;;;20.30;56.90;;;;;;5083420;28;20499;-71
2024/03/25 04:03:16;;;;;;;25.90;24.77;;;20.30;56.90;;;;;;5082107;28;20829;-71
2024/03/25 04:05:44;;;;;;;25.27;24.03;;;20.30;57.00;;;;;;5079788;28;20982;-71
2024/03/25 04:08:09;;;;;;;24.83;23.93;;;20.30;57.50;;;;;;5079842;28;20443;-71
2024/03/25 04:10:38;;;;;;;25.23;24.23;;;20.30;56.80;;;;;;5083373;28;20450;-71
2024/03/25 04:13:04;;;;;;;26.03;24.93;;;20.30;56.90;;;;;;5083391;28;20208;-71
2024/03/25 04:15:33;;;;;;;26.33;25.23;;;20.30;56.90;;;;;;5080105;28;20451;-71
2024/03/25 04:17:59;;;;;;;25.30;24.00;;;20.30;57.00;;;;;;5079546;28;20814;-71
2024/03/25 04:20:28;;;;;;;25.80;24.70;;;20.30;56.80;;;;;;5081697;28;20442;-71
2024/03/25 04:22:54;;;;;;;24.40;23.40;;;20.30;56.80;;;;;;5083243;28;20208;-71
2024/03/25 04:25:20;;;;;;;26.33;25.03;;;20.30;56.80;;;;;;5081500;28;21017;-71
2024/03/25 04:27:48;;;;;;;24.93;23.93;;;20.30;56.90;;;;;;5079376;28;20212;-73
2024/03/25 04:30:15;;;;;;;25.63;24.43;;;20.30;56.90;;;;;;5079767;28;20500;-71
2024/03/25 04:32:41;;;;;;;26.13;25.03;;;20.30;56.70;;;;;;5083084;28;20443;-71
2024/03/25 04:35:09;;;;;;;25.77;24.13;;;20.30;56.80;;;;;;5083234;28;20862;-72
